sensor_id;sensor_type;location;lat;lon;timestamp;temperature;humidity
20735;DHT22;10528;52.124;5.196;2023-04-01T00:02:26;11.50;99.90
20735;DHT22;10528;52.124;5.196;2023-04-01T00:04:53;11.70;99.90
20735;DHT22;10528;52.124;5.196;2023-04-01T00:07:20;11.70;99.90
20735;DHT22;10528;52.124;5.196;2023-04-01T00:09:47;11.80;99.90
20735;DHT22;10528;52.124;5.196;2023-04-01T00:12:14;11.60;99.90
20735;DHT22;10528;52.124;5.196;2023-04-01T00:14:41;11.50;99.90
20735;DHT22;10528;52.124;5.196;2023-04-01T00:17:07;11.50;99.90
20735;DHT22;10528;52.124;5.196;2023-04-01T00:19:34;11.60;99.90
20735;DHT22;10528;52.124;5.196;2023-04-01T00:22:01;11.60;99.90
20735;DHT22;10528;52.124;5.196;2023-04-01T00:24:29;11.50;99.90
20735;DHT22;10528;52.124;5.196;2023-04-01T00:26:55;11.40;99.90
20735;DHT22;10528;52.124;5.196;2023-04-01T00:29:22;11.40;99.90
20735;DHT22;10528;52.124;5.196;2023-04-01T00:31:50;11.50;99.90
20735;DHT22;10528;52.124;5.196;2023-04-01T00:34:17;11.40;99.90
20735;DHT22;10528;52.124;5.196;2023-04-01T00:36:44;11.40;99.90
20735;DHT22;10528;52.124;5.196;2023-04-01T00:39:11;11.50;99.90
20735;DHT22;10528;52.124;5.196;2023-04-01T00:41:38;11.50;99.90
20735;DHT22;10528;52.124;5.196;2023-04-01T00:44:28;11.40;99.90
20735;DHT22;10528;52.124;5.196;2023-04-01T00:46:57;11.40;99.90
20735;DHT22;10528;52.124;5.196;2023-04-01T00:49:28;11.40;99.90
20735;DHT22;10528;52.124;5.196;2023-04-01T00:51:59;11.50;99.90
20735;DHT22;10528;52.124;5.196;2023-04-01T00:54:30;11.50;99.90
20735;DHT22;10528;52.124;5.196;2023-04-01T00:57:00;11.40;99.90
20735;DHT22;10528;52.124;5.196;2023-04-01T00:59:39;11.40;99.90
20735;DHT22;10528;52.124;5.196;2023-04-01T01:02:11;11.40;99.90
20735;DHT22;10528;52.124;5.196;2023-04-01T01:04:40;11.30;99.90
20735;DHT22;10528;52.124;5.196;2023-04-01T01:10:17;11.40;99.90
20735;DHT22;10528;52.124;5.196;2023-04-01T01:15:46;11.30;99.90
20735;DHT22;10528;52.124;5.196;2023-04-01T01:18:38;11.30;99.90
20735;DHT22;10528;52.124;5.196;2023-04-01T01:24:37;11.20;99.90
20735;DHT22;10528;52.124;5.196;2023-04-01T01:27:11;11.20;99.90
20735;DHT22;10528;52.124;5.196;2023-04-01T01:33:06;11.10;99.90
20735;DHT22;10528;52.124;5.196;2023-04-01T01:35:47;11.10;99.90
20735;DHT22;10528;52.124;5.196;2023-04-01T01:38:23;11.10;99.90
20735;DHT22;10528;52.124;5.196;2023-04-01T01:41:02;11.10;99.90
20735;DHT22;10528;52.124;5.196;2023-04-01T01:43:41;11.20;99.90
20735;DHT22;10528;52.124;5.196;2023-04-01T01:46:16;11.20;99.90
20735;DHT22;10528;52.124;5.196;2023-04-01T01:48:46;11.10;99.90
20735;DHT22;10528;52.124;5.196;2023-04-01T01:51:14;11.20;99.90
20735;DHT22;10528;52.124;5.196;2023-04-01T01:53:42;11.10;99.90
20735;DHT22;10528;52.124;5.196;2023-04-01T01:56:11;11.20;99.90
20735;DHT22;10528;52.124;5.196;2023-04-01T01:58:45;11.10;99.90
20735;DHT22;10528;52.124;5.196;2023-04-01T02:01:24;11.10;99.90
20735;DHT22;10528;52.124;5.196;2023-04-01T02:03:58;11.10;99.90
20735;DHT22;10528;52.124;5.196;2023-04-01T02:06:30;11.00;99.90
20735;DHT22;10528;52.124;5.196;2023-04-01T02:09:03;11.00;99.90
20735;DHT22;10528;52.124;5.196;2023-04-01T02:11:43;11.10;99.90
20735;DHT22;10528;52.124;5.196;2023-04-01T02:14:20;11.10;99.90
20735;DHT22;10528;52.124;5.196;2023-04-01T02:16:59;11.20;99.90
20735;DHT22;10528;52.124;5.196;2023-04-01T02:19:46;11.20;99.90
20735;DHT22;10528;52.124;5.196;2023-04-01T02:22:18;11.10;99.90
20735;DHT22;10528;52.124;5.196;2023-04-01T02:24:53;11.10;99.90
20735;DHT22;10528;52.124;5.196;2023-04-01T02:27:23;11.10;99.90
20735;DHT22;10528;52.124;5.196;2023-04-01T02:29:51;11.00;99.90
20735;DHT22;10528;52.124;5.196;2023-04-01T02:32:20;11.00;99.90
20735;DHT22;10528;52.124;5.196;2023-04-01T02:34:48;11.00;99.90
20735;DHT22;10528;52.124;5.196;2023-04-01T02:37:15;11.10;99.90
20735;DHT22;10528;52.124;5.196;2023-04-01T02:39:43;11.10;99.90
20735;DHT22;10528;52.124;5.196;2023-04-01T02:42:10;11.00;99.90
20735;DHT22;10528;52.124;5.196;2023-04-01T02:44:37;11.00;99.90
20735;DHT22;10528;52.124;5.196;2023-04-01T02:47:04;11.10;99.90
20735;DHT22;10528;52.124;5.196;2023-04-01T02:49:31;11.00;99.90
20735;DHT22;10528;52.124;5.196;2023-04-01T02:51:57;11.00;99.90
20735;DHT22;10528;52.124;5.196;2023-04-01T02:54:24;11.00;99.90
20735;DHT22;10528;52.124;5.196;2023-04-01T02:56:51;11.10;99.90
20735;DHT22;10528;52.124;5.196;2023-04-01T02:59:18;10.90;99.90
20735;DHT22;10528;52.124;5.196;2023-04-01T03:01:45;10.90;99.90
20735;DHT22;10528;52.124;5.196;2023-04-01T03:04:12;10.90;99.90
20735;DHT22;10528;52.124;5.196;2023-04-01T03:06:39;10.90;99.90
20735;DHT22;10528;52.124;5.196;2023-04-01T03:09:06;11.00;99.90
20735;DHT22;10528;52.124;5.196;2023-04-01T03:11:33;10.80;99.90
20735;DHT22;10528;52.124;5.196;2023-04-01T03:14:00;10.80;99.90
20735;DHT22;10528;52.124;5.196;2023-04-01T03:16:27;10.90;99.90
20735;DHT22;10528;52.124;5.196;2023-04-01T03:18:54;10.90;99.90
20735;DHT22;10528;52.124;5.196;2023-04-01T03:21:23;10.80;99.90
20735;DHT22;10528;52.124;5.196;2023-04-01T03:23:51;10.90;99.90
20735;DHT22;10528;52.124;5.196;2023-04-01T03:26:19;10.80;99.90
20735;DHT22;10528;52.124;5.196;2023-04-01T03:28:47;10.80;99.90
20735;DHT22;10528;52.124;5.196;2023-04-01T03:31:14;10.70;99.90
20735;DHT22;10528;52.124;5.196;2023-04-01T03:33:48;10.80;99.90
20735;DHT22;10528;52.124;5.196;2023-04-01T03:36:16;10.70;99.90
20735;DHT22;10528;52.124;5.196;2023-04-01T03:38:44;10.70;99.90
20735;DHT22;10528;52.124;5.196;2023-04-01T03:41:16;10.80;99.90
20735;DHT22;10528;52.124;5.196;2023-04-01T03:43:44;10.80;99.90
20735;DHT22;10528;52.124;5.196;2023-04-01T03:46:11;10.80;99.90
20735;DHT22;10528;52.124;5.196;2023-04-01T03:48:42;10.80;99.90
20735;DHT22;10528;52.124;5.196;2023-04-01T03:51:10;10.80;99.90
20735;DHT22;10528;52.124;5.196;2023-04-01T03:53:37;10.80;99.90
20735;DHT22;10528;52.124;5.196;2023-04-01T03:56:06;10.80;99.90
20735;DHT22;10528;52.124;5.196;2023-04-01T03:58:36;10.80;99.90
20735;DHT22;10528;52.124;5.196;2023-04-01T04:01:19;10.80;99.90
20735;DHT22;10528;52.124;5.196;2023-04-01T04:03:51;11.00;99.90
20735;DHT22;10528;52.124;5.196;2023-04-01T04:06:20;11.00;99.90
20735;DHT22;10528;52.124;5.196;2023-04-01T04:08:48;10.90;99.90
20735;DHT22;10528;52.124;5.196;2023-04-01T04:11:15;10.90;99.90
20735;DHT22;10528;52.124;5.196;2023-04-01T04:13:43;10.90;99.90
20735;DHT22;10528;52.124;5.196;2023-04-01T04:16:10;11.00;99.90
20735;DHT22;10528;52.124;5.196;2023-04-01T04:18:42;11.00;99.90
20735;DHT22;10528;52.124;5.196;2023-04-01T04:21:13;10.90;99.90
20735;DHT22;10528;52.124;5.196;2023-04-01T04:23:42;10.90;99.90
20735;DHT22;10528;52.124;5.196;2023-04-01T04:26:13;11.00;99.90
20735;DHT22;10528;52.124;5.196;2023-04-01T04:28:44;11.00;99.90
20735;DHT22;10528;52.124;5.196;2023-04-01T04:31:11;11.00;99.90
20735;DHT22;10528;52.124;5.196;2023-04-01T04:33:44;11.00;99.90
20735;DHT22;10528;52.124;5.196;2023-04-01T04:36:11;11.00;99.90
20735;DHT22;10528;52.124;5.196;2023-04-01T04:38:38;11.00;99.90
20735;DHT22;10528;52.124;5.196;2023-04-01T04:41:12;11.00;99.90
20735;DHT22;10528;52.124;5.196;2023-04-01T04:43:52;10.90;99.90
20735;DHT22;10528;52.124;5.196;2023-04-01T04:46:22;10.90;99.90
20735;DHT22;10528;52.124;5.196;2023-04-01T04:48:55;11.00;99.90
20735;DHT22;10528;52.124;5.196;2023-04-01T04:51:22;11.00;99.90
20735;DHT22;10528;52.124;5.196;2023-04-01T04:53:50;11.00;99.90
20735;DHT22;10528;52.124;5.196;2023-04-01T04:56:22;11.00;99.90
20735;DHT22;10528;52.124;5.196;2023-04-01T04:59:05;11.00;99.90
20735;DHT22;10528;52.124;5.196;2023-04-01T05:01:48;11.00;99.90
20735;DHT22;10528;52.124;5.196;2023-04-01T05:04:15;11.00;99.90
20735;DHT22;10528;52.124;5.196;2023-04-01T05:06:43;11.00;99.90
20735;DHT22;10528;52.124;5.196;2023-04-01T05:09:11;11.00;99.90
20735;DHT22;10528;52.124;5.196;2023-04-01T05:11:39;11.10;99.90
20735;DHT22;10528;52.124;5.196;2023-04-01T05:14:11;11.10;99.90
20735;DHT22;10528;52.124;5.196;2023-04-01T05:16:40;11.10;99.90
20735;DHT22;10528;52.124;5.196;2023-04-01T05:19:07;11.10;99.90
20735;DHT22;10528;52.124;5.196;2023-04-01T05:21:33;11.10;99.90
20735;DHT22;10528;52.124;5.196;2023-04-01T05:24:00;11.10;99.90
20735;DHT22;10528;52.124;5.196;2023-04-01T05:26:29;11.10;99.90
20735;DHT22;10528;52.124;5.196;2023-04-01T05:28:55;11.10;99.90
20735;DHT22;10528;52.124;5.196;2023-04-01T05:31:22;11.10;99.90
20735;DHT22;10528;52.124;5.196;2023-04-01T05:33:51;11.10;99.90
20735;DHT22;10528;52.124;5.196;2023-04-01T05:36:18;11.10;99.90
20735;DHT22;10528;52.124;5.196;2023-04-01T05:38:45;11.10;99.90
20735;DHT22;10528;52.124;5.196;2023-04-01T05:41:14;11.10;99.90
20735;DHT22;10528;52.124;5.196;2023-04-01T05:43:44;11.10;99.90
20735;DHT22;10528;52.124;5.196;2023-04-01T05:46:31;11.10;99.90
20735;DHT22;10528;52.124;5.196;2023-04-01T05:49:07;11.10;99.90
20735;DHT22;10528;52.124;5.196;2023-04-01T05:51:34;11.10;99.90
20735;DHT22;10528;52.124;5.196;2023-04-01T05:54:03;11.10;99.90
20735;DHT22;10528;52.124;5.196;2023-04-01T05:56:31;11.10;99.90
20735;DHT22;10528;52.124;5.196;2023-04-01T05:58:59;11.10;99.90
20735;DHT22;10528;52.124;5.196;2023-04-01T06:01:26;11.10;99.90
20735;DHT22;10528;52.124;5.196;2023-04-01T06:03:53;11.00;99.90
20735;DHT22;10528;52.124;5.196;2023-04-01T06:06:25;11.00;99.90
20735;DHT22;10528;52.124;5.196;2023-04-01T06:09:07;11.00;99.90
20735;DHT22;10528;52.124;5.196;2023-04-01T06:15:06;11.00;99.90
20735;DHT22;10528;52.124;5.196;2023-04-01T06:17:43;11.10;99.90
20735;DHT22;10528;52.124;5.196;2023-04-01T06:23:33;11.00;99.90
20735;DHT22;10528;52.124;5.196;2023-04-01T06:26:57;11.00;99.90
20735;DHT22;10528;52.124;5.196;2023-04-01T06:32:49;11.00;99.90
20735;DHT22;10528;52.124;5.196;2023-04-01T06:35:28;10.90;99.90
20735;DHT22;10528;52.124;5.196;2023-04-01T06:44:23;11.00;99.90
20735;DHT22;10528;52.124;5.196;2023-04-01T06:47:43;11.00;99.90
20735;DHT22;10528;52.124;5.196;2023-04-01T06:53:50;11.10;99.90
20735;DHT22;10528;52.124;5.196;2023-04-01T06:56:58;11.10;99.90
20735;DHT22;10528;52.124;5.196;2023-04-01T06:59:34;11.10;99.90
20735;DHT22;10528;52.124;5.196;2023-04-01T07:04:44;11.10;99.90
20735;DHT22;10528;52.124;5.196;2023-04-01T07:10:20;11.10;99.90
20735;DHT22;10528;52.124;5.196;2023-04-01T07:13:32;11.10;99.90
20735;DHT22;10528;52.124;5.196;2023-04-01T07:16:17;11.00;99.90
20735;DHT22;10528;52.124;5.196;2023-04-01T07:18:56;11.00;99.90
20735;DHT22;10528;52.124;5.196;2023-04-01T07:21:51;11.10;99.90
20735;DHT22;10528;52.124;5.196;2023-04-01T07:24:37;11.10;99.90
20735;DHT22;10528;52.124;5.196;2023-04-01T07:27:13;11.10;99.90
20735;DHT22;10528;52.124;5.196;2023-04-01T07:29:43;11.10;99.90
20735;DHT22;10528;52.124;5.196;2023-04-01T07:38:57;11.10;99.90
20735;DHT22;10528;52.124;5.196;2023-04-01T07:41:10;11.20;99.90
20735;DHT22;10528;52.124;5.196;2023-04-01T07:44:28;11.20;99.90
20735;DHT22;10528;52.124;5.196;2023-04-01T07:55:40;11.20;99.90
20735;DHT22;10528;52.124;5.196;2023-04-01T07:58:39;11.30;99.90
20735;DHT22;10528;52.124;5.196;2023-04-01T08:07:35;11.40;99.90
20735;DHT22;10528;52.124;5.196;2023-04-01T08:10:38;11.40;99.90
20735;DHT22;10528;52.124;5.196;2023-04-01T08:22:41;11.60;99.90
20735;DHT22;10528;52.124;5.196;2023-04-01T08:25:25;11.60;99.90
20735;DHT22;10528;52.124;5.196;2023-04-01T08:28:11;11.60;99.90
20735;DHT22;10528;52.124;5.196;2023-04-01T08:31:05;11.60;99.90
20735;DHT22;10528;52.124;5.196;2023-04-01T08:33:38;11.70;99.90
20735;DHT22;10528;52.124;5.196;2023-04-01T08:36:22;11.50;99.90
20735;DHT22;10528;52.124;5.196;2023-04-01T08:39:54;11.70;99.90
20735;DHT22;10528;52.124;5.196;2023-04-01T08:54:42;11.60;99.90
20735;DHT22;10528;52.124;5.196;2023-04-01T09:00:51;11.60;99.90
20735;DHT22;10528;52.124;5.196;2023-04-01T09:03:47;11.50;99.90
20735;DHT22;10528;52.124;5.196;2023-04-01T09:06:52;11.70;99.90
20735;DHT22;10528;52.124;5.196;2023-04-01T09:19:21;11.70;99.90
20735;DHT22;10528;52.124;5.196;2023-04-01T09:43:26;11.90;99.90
20735;DHT22;10528;52.124;5.196;2023-04-01T09:46:26;11.90;99.90
20735;DHT22;10528;52.124;5.196;2023-04-01T09:58:40;12.10;99.90
20735;DHT22;10528;52.124;5.196;2023-04-01T10:26:17;12.20;99.90
20735;DHT22;10528;52.124;5.196;2023-04-01T10:29:31;12.20;99.90
20735;DHT22;10528;52.124;5.196;2023-04-01T10:32:30;12.30;99.90
20735;DHT22;10528;52.124;5.196;2023-04-01T10:39:07;12.30;99.90
20735;DHT22;10528;52.124;5.196;2023-04-01T10:45:35;12.60;99.90
20735;DHT22;10528;52.124;5.196;2023-04-01T10:54:49;12.60;99.90
20735;DHT22;10528;52.124;5.196;2023-04-01T11:17:39;13.30;99.90
20735;DHT22;10528;52.124;5.196;2023-04-01T11:26:39;13.20;99.90
20735;DHT22;10528;52.124;5.196;2023-04-01T11:32:51;13.30;99.90
20735;DHT22;10528;52.124;5.196;2023-04-01T11:39:00;13.40;99.90
20735;DHT22;10528;52.124;5.196;2023-04-01T11:48:13;13.60;99.90
20735;DHT22;10528;52.124;5.196;2023-04-01T12:00:56;13.50;99.90
20735;DHT22;10528;52.124;5.196;2023-04-01T12:14:52;13.50;99.90
20735;DHT22;10528;52.124;5.196;2023-04-01T12:17:45;13.40;99.90
20735;DHT22;10528;52.124;5.196;2023-04-01T12:20:42;13.40;99.90
20735;DHT22;10528;52.124;5.196;2023-04-01T12:26:25;13.20;99.90
20735;DHT22;10528;52.124;5.196;2023-04-01T12:38:29;13.00;99.90
20735;DHT22;10528;52.124;5.196;2023-04-01T12:41:02;12.90;99.90
20735;DHT22;10528;52.124;5.196;2023-04-01T12:53:02;12.60;99.90
20735;DHT22;10528;52.124;5.196;2023-04-01T12:55:44;12.60;99.90
20735;DHT22;10528;52.124;5.196;2023-04-01T13:04:49;12.90;99.90
20735;DHT22;10528;52.124;5.196;2023-04-01T13:07:31;13.10;99.90
20735;DHT22;10528;52.124;5.196;2023-04-01T13:13:37;13.20;99.90
20735;DHT22;10528;52.124;5.196;2023-04-01T13:16:16;13.10;99.90
20735;DHT22;10528;52.124;5.196;2023-04-01T13:24:38;13.20;99.90
20735;DHT22;10528;52.124;5.196;2023-04-01T13:27:25;13.00;99.90
20735;DHT22;10528;52.124;5.196;2023-04-01T13:30:17;13.00;99.90
20735;DHT22;10528;52.124;5.196;2023-04-01T13:36:50;12.70;99.90
20735;DHT22;10528;52.124;5.196;2023-04-01T13:42:53;12.60;99.90
20735;DHT22;10528;52.124;5.196;2023-04-01T13:48:29;12.50;99.90
20735;DHT22;10528;52.124;5.196;2023-04-01T14:24:17;12.20;99.90
20735;DHT22;10528;52.124;5.196;2023-04-01T14:27:16;12.30;99.90
20735;DHT22;10528;52.124;5.196;2023-04-01T14:33:05;12.30;99.90
20735;DHT22;10528;52.124;5.196;2023-04-01T14:36:28;12.10;99.90
20735;DHT22;10528;52.124;5.196;2023-04-01T14:48:24;12.20;99.90
20735;DHT22;10528;52.124;5.196;2023-04-01T14:51:28;12.20;99.90
20735;DHT22;10528;52.124;5.196;2023-04-01T14:54:05;12.10;99.90
20735;DHT22;10528;52.124;5.196;2023-04-01T14:59:48;12.20;99.90
20735;DHT22;10528;52.124;5.196;2023-04-01T15:08:26;12.00;99.90
20735;DHT22;10528;52.124;5.196;2023-04-01T15:17:53;11.90;99.90
20735;DHT22;10528;52.124;5.196;2023-04-01T15:24:00;11.90;99.90
20735;DHT22;10528;52.124;5.196;2023-04-01T15:33:12;11.70;99.90
20735;DHT22;10528;52.124;5.196;2023-04-01T15:38:48;11.70;99.90
20735;DHT22;10528;52.124;5.196;2023-04-01T15:49:56;11.60;99.90
20735;DHT22;10528;52.124;5.196;2023-04-01T16:04:38;11.40;99.90
20735;DHT22;10528;52.124;5.196;2023-04-01T16:13:33;11.40;99.90
20735;DHT22;10528;52.124;5.196;2023-04-01T16:16:23;11.30;99.90
20735;DHT22;10528;52.124;5.196;2023-04-01T16:19:27;11.40;99.90
20735;DHT22;10528;52.124;5.196;2023-04-01T16:24:48;11.20;99.90
20735;DHT22;10528;52.124;5.196;2023-04-01T16:33:22;11.00;99.90
20735;DHT22;10528;52.124;5.196;2023-04-01T16:36:26;10.80;99.90
20735;DHT22;10528;52.124;5.196;2023-04-01T16:50:28;10.90;99.90
20735;DHT22;10528;52.124;5.196;2023-04-01T16:58:27;10.80;99.90
20735;DHT22;10528;52.124;5.196;2023-04-01T17:01:26;10.70;99.90
20735;DHT22;10528;52.124;5.196;2023-04-01T17:04:00;10.80;99.90
20735;DHT22;10528;52.124;5.196;2023-04-01T17:15:41;10.60;99.90
20735;DHT22;10528;52.124;5.196;2023-04-01T17:21:49;10.60;99.90
20735;DHT22;10528;52.124;5.196;2023-04-01T17:27:18;10.50;99.90
20735;DHT22;10528;52.124;5.196;2023-04-01T17:33:22;10.60;99.90
20735;DHT22;10528;52.124;5.196;2023-04-01T17:36:12;10.50;99.90
20735;DHT22;10528;52.124;5.196;2023-04-01T17:39:07;10.50;99.90
20735;DHT22;10528;52.124;5.196;2023-04-01T17:41:47;10.40;99.90
20735;DHT22;10528;52.124;5.196;2023-04-01T17:53:14;10.10;99.90
20735;DHT22;10528;52.124;5.196;2023-04-01T17:59:04;10.10;99.90
20735;DHT22;10528;52.124;5.196;2023-04-01T18:07:48;10.00;99.90
20735;DHT22;10528;52.124;5.196;2023-04-01T18:28:15;9.90;99.90
20735;DHT22;10528;52.124;5.196;2023-04-01T18:30:51;9.90;99.90
20735;DHT22;10528;52.124;5.196;2023-04-01T18:33:54;9.80;99.90
20735;DHT22;10528;52.124;5.196;2023-04-01T18:36:53;9.90;99.90
20735;DHT22;10528;52.124;5.196;2023-04-01T18:39:40;9.90;99.90
20735;DHT22;10528;52.124;5.196;2023-04-01T18:45:02;9.90;99.90
20735;DHT22;10528;52.124;5.196;2023-04-01T18:54:08;9.90;99.90
20735;DHT22;10528;52.124;5.196;2023-04-01T18:56:44;9.90;99.90
20735;DHT22;10528;52.124;5.196;2023-04-01T19:02:08;9.90;99.90
20735;DHT22;10528;52.124;5.196;2023-04-01T19:05:18;9.80;99.90
20735;DHT22;10528;52.124;5.196;2023-04-01T19:07:52;9.70;99.90
20735;DHT22;10528;52.124;5.196;2023-04-01T19:10:49;9.70;99.90
20735;DHT22;10528;52.124;5.196;2023-04-01T19:22:43;9.70;99.90
20735;DHT22;10528;52.124;5.196;2023-04-01T19:25:29;9.70;99.90
20735;DHT22;10528;52.124;5.196;2023-04-01T19:31:59;9.80;99.90
20735;DHT22;10528;52.124;5.196;2023-04-01T19:41:21;9.70;99.90
20735;DHT22;10528;52.124;5.196;2023-04-01T19:44:23;9.50;99.90
20735;DHT22;10528;52.124;5.196;2023-04-01T19:47:35;9.50;99.90
20735;DHT22;10528;52.124;5.196;2023-04-01T19:53:25;9.50;99.90
20735;DHT22;10528;52.124;5.196;2023-04-01T19:56:18;9.40;99.90
20735;DHT22;10528;52.124;5.196;2023-04-01T20:04:26;9.30;99.90
20735;DHT22;10528;52.124;5.196;2023-04-01T20:07:09;9.20;99.90
20735;DHT22;10528;52.124;5.196;2023-04-01T20:16:18;9.30;99.90
20735;DHT22;10528;52.124;5.196;2023-04-01T20:18:59;9.20;99.90
20735;DHT22;10528;52.124;5.196;2023-04-01T20:21:46;9.10;99.90
20735;DHT22;10528;52.124;5.196;2023-04-01T20:33:30;8.90;99.90
20735;DHT22;10528;52.124;5.196;2023-04-01T20:42:34;9.00;99.90
20735;DHT22;10528;52.124;5.196;2023-04-01T20:50:58;8.70;99.90
20735;DHT22;10528;52.124;5.196;2023-04-01T20:59:36;8.70;99.90
20735;DHT22;10528;52.124;5.196;2023-04-01T21:08:46;8.60;99.90
20735;DHT22;10528;52.124;5.196;2023-04-01T21:14:34;8.50;99.90
20735;DHT22;10528;52.124;5.196;2023-04-01T21:33:08;8.40;99.90
20735;DHT22;10528;52.124;5.196;2023-04-01T21:40:14;8.30;99.90
20735;DHT22;10528;52.124;5.196;2023-04-01T21:49:43;8.30;99.90
20735;DHT22;10528;52.124;5.196;2023-04-01T21:53:00;8.30;99.90
20735;DHT22;10528;52.124;5.196;2023-04-01T21:58:32;8.30;99.90
20735;DHT22;10528;52.124;5.196;2023-04-01T22:01:38;8.20;99.90
20735;DHT22;10528;52.124;5.196;2023-04-01T22:07:17;8.10;99.90
20735;DHT22;10528;52.124;5.196;2023-04-01T22:12:59;8.10;99.90
20735;DHT22;10528;52.124;5.196;2023-04-01T22:15:52;8.20;99.90
20735;DHT22;10528;52.124;5.196;2023-04-01T22:21:07;8.00;99.90
20735;DHT22;10528;52.124;5.196;2023-04-01T22:24:12;8.10;99.90
20735;DHT22;10528;52.124;5.196;2023-04-01T22:27:00;8.00;99.90
20735;DHT22;10528;52.124;5.196;2023-04-01T22:32:32;8.10;99.90
20735;DHT22;10528;52.124;5.196;2023-04-01T22:35:54;7.90;99.90
20735;DHT22;10528;52.124;5.196;2023-04-01T22:42:00;7.90;99.90
20735;DHT22;10528;52.124;5.196;2023-04-01T22:47:57;7.90;99.90
20735;DHT22;10528;52.124;5.196;2023-04-01T22:50:47;7.80;99.90
20735;DHT22;10528;52.124;5.196;2023-04-01T22:56:41;7.80;99.90
20735;DHT22;10528;52.124;5.196;2023-04-01T22:59:25;7.80;99.90
20735;DHT22;10528;52.124;5.196;2023-04-01T23:02:20;7.80;99.90
20735;DHT22;10528;52.124;5.196;2023-04-01T23:04:55;7.90;99.90
20735;DHT22;10528;52.124;5.196;2023-04-01T23:13:14;7.80;99.90
20735;DHT22;10528;52.124;5.196;2023-04-01T23:15:45;7.60;99.90
20735;DHT22;10528;52.124;5.196;2023-04-01T23:29:48;7.60;99.90
20735;DHT22;10528;52.124;5.196;2023-04-01T23:32:19;7.50;99.90
20735;DHT22;10528;52.124;5.196;2023-04-01T23:34:56;7.60;99.90
20735;DHT22;10528;52.124;5.196;2023-04-01T23:37:25;7.60;99.90
20735;DHT22;10528;52.124;5.196;2023-04-01T23:39:57;7.70;99.90
20735;DHT22;10528;52.124;5.196;2023-04-01T23:42:38;7.60;99.90
20735;DHT22;10528;52.124;5.196;2023-04-01T23:45:17;7.70;99.90
20735;DHT22;10528;52.124;5.196;2023-04-01T23:47:47;7.70;99.90
20735;DHT22;10528;52.124;5.196;2023-04-01T23:50:21;7.70;99.90
20735;DHT22;10528;52.124;5.196;2023-04-01T23:53:03;7.50;99.90
20735;DHT22;10528;52.124;5.196;2023-04-01T23:55:40;7.60;99.90
20735;DHT22;10528;52.124;5.196;2023-04-01T23:58:44;7.60;99.90
